createdAt,value
2023-04-28T00:03:38.594Z,97710.00
2023-04-28T00:07:39.904Z,97699.00
2023-04-28T00:11:40.939Z,97689.00
2023-04-28T00:15:41.875Z,97685.00
2023-04-28T00:19:43.077Z,97678.00
2023-04-28T00:23:43.989Z,97672.00
2023-04-28T00:27:44.934Z,97663.00
2023-04-28T00:31:45.897Z,97662.00
2023-04-28T00:35:46.960Z,97659.00
2023-04-28T00:39:48.118Z,97649.00
2023-04-28T00:43:50.203Z,97655.00
2023-04-28T00:47:51.371Z,97658.00
2023-04-28T00:51:52.296Z,97648.00
2023-04-28T00:55:55.552Z,97641.00
2023-04-28T00:59:57.080Z,97635.00
2023-04-28T01:03:58.343Z,97632.00
2023-04-28T01:07:59.872Z,97609.00
2023-04-28T01:12:01.145Z,97603.00
2023-04-28T01:16:02.349Z,97606.00
2023-04-28T01:20:04.095Z,97600.00
2023-04-28T01:24:05.942Z,97603.00
2023-04-28T01:28:07.499Z,97607.00
2023-04-28T01:32:08.573Z,97604.00
2023-04-28T01:36:09.636Z,97596.00
2023-04-28T01:40:11.713Z,97590.00
2023-04-28T01:44:12.734Z,97580.00
2023-04-28T01:48:13.808Z,97571.00
2023-04-28T01:52:15.087Z,97574.00
2023-04-28T01:56:16.020Z,97560.00
2023-04-28T02:00:17.710Z,97567.00
2023-04-28T02:04:18.944Z,97564.00
2023-04-28T02:08:20.230Z,97560.00
2023-04-28T02:12:21.343Z,97572.00
2023-04-28T02:16:22.316Z,97573.00
2023-04-28T02:20:23.251Z,97575.00
2023-04-28T02:24:24.332Z,97564.00
2023-04-28T02:28:25.254Z,97548.00
2023-04-28T02:32:27.371Z,97541.00
2023-04-28T02:36:30.096Z,97542.00
2023-04-28T02:40:33.932Z,97542.00
2023-04-28T02:44:34.961Z,97541.00
2023-04-28T02:48:38.149Z,97551.00
2023-04-28T02:52:39.101Z,97543.00
2023-04-28T02:56:41.846Z,97530.00
2023-04-28T03:00:44.697Z,97522.00
2023-04-28T03:04:47.484Z,97533.00
2023-04-28T03:08:50.062Z,97518.00
2023-04-28T03:12:54.608Z,97520.00
2023-04-28T03:16:58.549Z,97513.00
2023-04-28T03:20:59.520Z,97504.00
2023-04-28T03:25:01.824Z,97495.00
2023-04-28T03:29:05.066Z,97485.00
2023-04-28T03:33:08.400Z,97484.00
2023-04-28T03:37:09.303Z,97472.00
2023-04-28T03:41:12.152Z,97468.00
2023-04-28T03:45:13.074Z,97476.00
2023-04-28T03:49:15.197Z,97472.00
2023-04-28T03:53:19.643Z,97473.00
2023-04-28T03:57:22.191Z,97470.00
2023-04-28T04:01:25.910Z,97458.00
2023-04-28T04:05:29.086Z,97457.00
2023-04-28T04:09:32.036Z,97446.00
2023-04-28T04:13:34.662Z,97446.00
2023-04-28T04:17:37.694Z,97448.00
2023-04-28T04:21:38.661Z,97456.00
2023-04-28T04:25:40.884Z,97457.00
2023-04-28T04:29:43.530Z,97468.00
2023-04-28T04:33:46.905Z,97474.00
2023-04-28T04:37:49.432Z,97486.00
2023-04-28T04:41:52.025Z,97490.00
2023-04-28T04:45:54.550Z,97468.00
2023-04-28T04:49:59.223Z,97474.00
2023-04-28T04:54:02.124Z,97495.00
2023-04-28T04:58:04.556Z,97486.00
2023-04-28T05:02:05.515Z,97475.00
2023-04-28T05:06:07.748Z,97477.00
2023-04-28T05:10:10.959Z,97469.00
2023-04-28T05:14:13.732Z,97470.00
2023-04-28T05:18:17.294Z,97463.00
2023-04-28T05:22:19.663Z,97456.00
2023-04-28T05:26:22.308Z,97460.00
2023-04-28T05:30:25.195Z,97450.00
2023-04-28T05:34:28.013Z,97454.00
2023-04-28T05:38:30.985Z,97456.00
2023-04-28T05:42:33.341Z,97455.00
2023-04-28T05:46:36.278Z,97452.00
2023-04-28T05:50:40.797Z,97456.00
2023-04-28T05:54:43.464Z,97453.00
2023-04-28T05:58:45.913Z,97440.00
2023-04-28T06:02:48.487Z,97458.00
2023-04-28T06:06:51.806Z,97463.00
2023-04-28T06:10:54.305Z,97475.00
2023-04-28T06:14:56.883Z,97485.00
2023-04-28T06:18:57.858Z,97486.00
2023-04-28T06:22:59.912Z,97477.00
2023-04-28T06:27:03.782Z,97464.00
2023-04-28T06:31:05.086Z,97469.00
2023-04-28T06:35:09.760Z,97473.00
2023-04-28T06:39:12.282Z,97468.00
2023-04-28T06:43:15.178Z,97450.00
2023-04-28T06:47:17.704Z,97453.00
2023-04-28T06:51:21.717Z,97458.00
2023-04-28T06:55:25.923Z,97448.00
2023-04-28T06:59:26.917Z,97438.00
2023-04-28T07:03:30.015Z,97434.00
2023-04-28T07:07:32.541Z,97431.00
2023-04-28T07:11:35.091Z,97431.00
2023-04-28T07:15:36.069Z,97437.00
2023-04-28T07:19:39.246Z,97430.00
2023-04-28T07:23:41.131Z,97425.00
2023-04-28T07:27:43.544Z,97423.00
2023-04-28T07:31:46.046Z,97418.00
2023-04-28T07:35:50.558Z,97408.00
2023-04-28T07:39:53.007Z,97396.00
2023-04-28T07:43:55.453Z,97383.00
2023-04-28T07:47:56.442Z,97386.00
2023-04-28T07:51:59.220Z,97401.00
2023-04-28T07:56:02.464Z,97406.00
2023-04-28T08:00:06.471Z,97415.00
2023-04-28T08:04:09.226Z,97430.00
2023-04-28T08:08:12.785Z,97417.00
2023-04-28T08:12:16.291Z,97419.00
2023-04-28T08:16:17.782Z,97413.00
2023-04-28T08:20:23.160Z,97426.00
2023-04-28T08:24:26.457Z,97422.00
2023-04-28T08:28:29.188Z,97432.00
2023-04-28T08:32:31.924Z,97423.00
2023-04-28T08:36:36.584Z,97432.00
2023-04-28T08:40:37.850Z,97432.00
2023-04-28T08:44:40.886Z,97418.00
2023-04-28T08:48:45.905Z,97427.00
2023-04-28T08:52:49.412Z,97421.00
2023-04-28T08:56:53.111Z,97427.00
2023-04-28T09:00:55.964Z,97372.00
2023-04-28T09:04:57.183Z,97429.00
2023-04-28T09:09:21.085Z,97446.00
2023-04-28T09:13:26.653Z,97433.00
2023-04-28T09:17:29.403Z,97437.00
2023-04-28T09:21:31.335Z,97435.00
2023-04-28T09:25:35.592Z,97428.00
2023-04-28T09:29:44.384Z,97433.00
2023-04-28T09:34:01.236Z,97425.00
2023-04-28T09:38:02.187Z,97435.00
2023-04-28T09:42:05.467Z,97433.00
2023-04-28T09:46:09.226Z,97440.00
2023-04-28T09:50:14.046Z,97435.00
2023-04-28T09:54:17.736Z,97437.00
2023-04-28T09:58:22.378Z,97442.00
2023-04-28T10:02:42.669Z,97441.00
2023-04-28T10:06:30.651Z,97439.00
2023-04-28T10:10:34.346Z,97442.00
2023-04-28T10:14:38.901Z,97436.00
2023-04-28T10:18:42.453Z,97435.00
2023-04-28T10:22:53.650Z,97436.00
2023-04-28T10:27:09.093Z,97429.00
2023-04-28T10:31:12.002Z,97419.00
2023-04-28T10:35:28.889Z,97417.00
2023-04-28T10:39:30.078Z,97397.00
2023-04-28T10:43:37.371Z,97389.00
2023-04-28T10:47:54.277Z,97387.00
2023-04-28T10:51:56.173Z,97390.00
2023-04-28T10:56:05.231Z,97384.00
2023-04-28T11:00:28.930Z,97396.00
2023-04-28T11:04:32.857Z,97398.00
2023-04-28T11:08:34.069Z,97413.00
2023-04-28T11:12:35.264Z,97400.00
2023-04-28T11:16:51.476Z,97386.00
2023-04-28T11:20:56.451Z,97381.00
2023-04-28T11:25:01.049Z,97396.00
2023-04-28T11:29:01.989Z,97417.00
2023-04-28T11:33:03.548Z,97393.00
2023-04-28T11:37:06.448Z,97408.00
2023-04-28T11:41:07.615Z,97398.00
2023-04-28T11:45:12.114Z,97400.00
2023-04-28T11:49:14.461Z,97390.00
2023-04-28T11:57:26.215Z,97377.00
2023-04-28T12:01:27.173Z,97383.00
2023-04-28T12:05:28.381Z,97375.00
2023-04-28T12:09:29.836Z,97376.00
2023-04-28T12:13:31.244Z,97367.00
2023-04-28T12:17:38.434Z,97374.00
2023-04-28T12:21:39.937Z,97384.00
2023-04-28T12:25:45.413Z,97373.00
2023-04-28T12:29:47.927Z,97369.00
2023-04-28T12:33:49.430Z,97366.00
2023-04-28T12:37:51.971Z,97394.00
2023-04-28T12:41:54.659Z,97379.00
2023-04-28T12:45:56.300Z,97384.00
2023-04-28T12:49:57.405Z,97371.00
2023-04-28T12:53:58.310Z,97376.00
2023-04-28T12:57:59.494Z,97366.00
2023-04-28T13:02:00.659Z,97371.00
2023-04-28T13:06:02.003Z,97388.00
2023-04-28T13:10:03.292Z,97380.00
2023-04-28T13:14:04.661Z,97371.00
2023-04-28T13:18:05.678Z,97357.00
2023-04-28T13:22:06.815Z,97356.00
2023-04-28T13:26:07.980Z,97357.00
2023-04-28T13:30:10.456Z,97356.00
2023-04-28T13:34:13.358Z,97346.00
2023-04-28T13:38:14.492Z,97334.00
2023-04-28T13:42:15.675Z,97345.00
2023-04-28T13:46:17.414Z,97333.00
2023-04-28T13:50:18.547Z,97317.00
2023-04-28T13:54:20.526Z,97309.00
2023-04-28T13:58:21.972Z,97305.00
2023-04-28T14:02:23.877Z,97311.00
2023-04-28T14:06:26.649Z,97321.00
2023-04-28T14:10:27.895Z,97320.00
2023-04-28T14:14:28.877Z,97344.00
2023-04-28T14:18:30.304Z,97365.00
2023-04-28T14:22:31.326Z,97376.00
2023-04-28T14:26:32.385Z,97381.00
2023-04-28T14:30:33.646Z,97367.00
2023-04-28T14:34:34.750Z,97315.00
2023-04-28T14:42:37.159Z,97331.00
2023-04-28T14:46:38.389Z,97316.00
2023-04-28T14:50:43.936Z,97318.00
2023-04-28T14:54:45.131Z,97318.00
2023-04-28T14:58:47.069Z,97316.00
2023-04-28T15:02:48.290Z,97330.00
2023-04-28T15:06:49.287Z,97316.00
2023-04-28T15:10:50.621Z,97325.00
2023-04-28T15:14:53.036Z,97318.00
2023-04-28T15:18:54.210Z,97332.00
2023-04-28T15:22:55.686Z,97316.00
2023-04-28T15:26:57.911Z,97311.00
2023-04-28T15:30:58.929Z,97313.00
2023-04-28T15:35:00.982Z,97315.00
2023-04-28T15:39:02.658Z,97320.00
2023-04-28T15:43:03.878Z,97326.00
2023-04-28T15:47:05.080Z,97320.00
2023-04-28T15:51:06.943Z,97312.00
2023-04-28T15:55:08.925Z,97322.00
2023-04-28T15:59:11.860Z,97313.00
2023-04-28T16:03:13.051Z,97331.00
2023-04-28T16:07:14.103Z,97333.00
2023-04-28T16:11:17.124Z,97329.00
2023-04-28T16:15:18.472Z,97310.00
2023-04-28T16:19:19.439Z,97311.00
2023-04-28T16:23:20.606Z,97303.00
2023-04-28T16:27:21.779Z,97297.00
2023-04-28T16:31:22.965Z,97272.00
2023-04-28T16:35:25.033Z,97242.00
2023-04-28T16:39:26.313Z,97230.00
2023-04-28T16:43:27.478Z,97229.00
2023-04-28T16:47:30.468Z,97249.00
2023-04-28T16:51:32.486Z,97264.00
2023-04-28T16:55:36.746Z,97278.00
2023-04-28T16:59:37.740Z,97287.00
2023-04-28T17:03:40.927Z,97279.00
2023-04-28T17:07:42.178Z,97286.00
2023-04-28T17:11:43.285Z,97287.00
2023-04-28T17:15:44.322Z,97277.00
2023-04-28T17:19:45.319Z,97271.00
2023-04-28T17:23:46.660Z,97286.00
2023-04-28T17:27:47.756Z,97284.00
2023-04-28T17:31:48.948Z,97280.00
2023-04-28T17:35:49.896Z,97270.00
2023-04-28T17:39:51.594Z,97283.00
2023-04-28T17:43:52.838Z,97276.00
2023-04-28T17:47:55.547Z,97282.00
2023-04-28T17:51:56.477Z,97286.00
2023-04-28T17:56:02.012Z,97289.00
2023-04-28T18:00:05.732Z,97303.00
2023-04-28T18:04:07.234Z,97307.00
2023-04-28T18:08:08.664Z,97305.00
2023-04-28T18:12:09.595Z,97300.00
2023-04-28T18:16:12.606Z,97312.00
2023-04-28T18:20:13.681Z,97316.00
2023-04-28T18:24:14.893Z,97333.00
2023-04-28T18:28:16.004Z,97325.00
2023-04-28T18:32:17.515Z,97342.00
2023-04-28T18:36:18.562Z,97344.00
2023-04-28T18:40:20.155Z,97341.00
2023-04-28T18:44:21.277Z,97345.00
2023-04-28T18:48:22.989Z,97345.00
2023-04-28T18:52:24.091Z,97362.00
2023-04-28T18:56:25.168Z,97356.00
2023-04-28T19:00:26.672Z,97366.00
2023-04-28T19:04:30.231Z,97361.00
2023-04-28T19:08:31.969Z,97374.00
2023-04-28T19:12:32.930Z,97375.00
2023-04-28T19:16:34.197Z,97385.00
2023-04-28T19:20:35.111Z,97408.00
2023-04-28T19:24:36.655Z,97403.00
2023-04-28T19:28:37.776Z,97414.00
2023-04-28T19:32:41.492Z,97418.00
2023-04-28T19:36:43.386Z,97429.00
2023-04-28T19:40:44.514Z,97436.00
2023-04-28T19:44:46.611Z,97457.00
2023-04-28T19:48:47.586Z,97449.00
2023-04-28T19:52:49.358Z,97454.00
2023-04-28T19:56:50.757Z,97470.00
2023-04-28T20:00:52.909Z,97471.00
2023-04-28T20:04:55.838Z,97471.00
2023-04-28T20:08:56.817Z,97471.00
2023-04-28T20:12:57.938Z,97471.00
2023-04-28T20:17:00.393Z,97485.00
2023-04-28T20:25:11.626Z,97483.00
2023-04-28T20:29:12.629Z,97486.00
2023-04-28T20:33:13.958Z,97485.00
2023-04-28T20:37:15.121Z,97480.00
2023-04-28T20:41:16.219Z,97490.00
2023-04-28T20:45:17.912Z,97485.00
2023-04-28T20:49:18.876Z,97479.00
2023-04-28T20:53:20.013Z,97479.00
2023-04-28T20:57:21.074Z,97484.00
2023-04-28T21:01:22.223Z,97483.00
2023-04-28T21:05:23.482Z,97472.00
2023-04-28T21:09:24.542Z,97464.00
2023-04-28T21:13:25.625Z,97476.00
2023-04-28T21:17:26.591Z,97469.00
2023-04-28T21:21:28.339Z,97465.00
2023-04-28T21:25:29.612Z,97470.00
2023-04-28T21:29:30.557Z,97464.00
2023-04-28T21:33:31.988Z,97468.00
2023-04-28T21:37:33.144Z,97467.00
2023-04-28T21:41:34.154Z,97467.00
2023-04-28T21:45:35.460Z,97470.00
2023-04-28T21:49:36.881Z,97469.00
2023-04-28T21:53:37.858Z,97472.00
2023-04-28T21:57:38.997Z,97463.00
2023-04-28T22:01:40.909Z,97469.00
2023-04-28T22:05:42.915Z,97466.00
2023-04-28T22:09:43.909Z,97473.00
2023-04-28T22:13:45.113Z,97468.00
2023-04-28T22:17:46.361Z,97487.00
2023-04-28T22:21:47.671Z,97475.00
2023-04-28T22:25:49.447Z,97476.00
2023-04-28T22:29:50.943Z,97479.00
2023-04-28T22:33:52.077Z,97479.00
2023-04-28T22:37:53.263Z,97474.00
2023-04-28T22:41:55.149Z,97476.00
2023-04-28T22:45:59.296Z,97481.00
2023-04-28T22:50:00.390Z,97470.00
2023-04-28T22:54:02.152Z,97478.00
2023-04-28T22:58:03.104Z,97471.00
2023-04-28T23:02:04.227Z,97486.00
2023-04-28T23:06:05.509Z,97474.00
2023-04-28T23:10:07.686Z,97477.00
2023-04-28T23:14:08.773Z,97471.00
2023-04-28T23:18:10.134Z,97477.00
2023-04-28T23:22:11.110Z,97470.00
2023-04-28T23:26:12.144Z,97470.00
2023-04-28T23:30:13.149Z,97470.00
2023-04-28T23:34:14.104Z,97478.00
2023-04-28T23:38:15.326Z,97481.00
2023-04-28T23:42:16.960Z,97495.00
2023-04-28T23:46:18.410Z,97495.00
2023-04-28T23:50:19.352Z,97484.00
2023-04-28T23:54:20.487Z,97482.00
2023-04-28T23:58:22.010Z,97476.00
